Time;durP1;ratioP1;P1;durP2;ratioP2;P2;SDS_P1;SDS_P2;PMS_P1;PMS_P2;Temp;Humidity;BMP_temperature;BMP_pressure;BME280_temperature;BME280_humidity;BME280_pressure;Samples;Min_cycle;Max_cycle;Signal;HPM_P1;HPM_P2
2023/03/01 00:01:48;;;;;;;30.80;13.80;;;;;;;14.86;26.06;100768.24;108362;1250;61319;-66
2023/03/01 00:04:17;;;;;;;23.60;11.20;;;;;;;15.01;25.94;100768.98;108310;1250;75141;-65
2023/03/01 00:06:47;;;;;;;28.10;13.50;;;;;;;15.02;26.04;100757.83;108351;1250;71324;-67
2023/03/01 00:09:15;;;;;;;30.00;13.50;;;;;;;14.65;26.26;100752.37;108269;1250;72994;-64
2023/03/01 00:11:44;;;;;;;25.10;12.00;;;;;;;14.57;26.50;100760.12;108289;1250;62958;-65
2023/03/01 00:14:12;;;;;;;22.10;12.90;;;;;;;14.60;26.48;100752.56;108336;1250;60166;-64
2023/03/01 00:16:46;;;;;;;24.40;11.70;;;;;;;14.76;26.30;100738.45;108249;1250;74356;-65
2023/03/01 00:19:16;;;;;;;25.00;12.50;;;;;;;14.96;26.13;100742.51;108257;1250;70655;-66
2023/03/01 00:21:45;;;;;;;21.30;10.90;;;;;;;15.01;26.04;100741.23;108331;1251;72983;-65
2023/03/01 00:24:13;;;;;;;29.20;13.10;;;;;;;14.74;26.33;100724.59;108378;1250;63406;-65
2023/03/01 00:26:41;;;;;;;24.30;13.10;;;;;;;14.79;26.32;100726.85;108313;1250;60460;-64
2023/03/01 00:29:09;;;;;;;28.60;12.50;;;;;;;14.74;26.24;100710.24;108381;1251;74299;-66
2023/03/01 00:31:38;;;;;;;23.80;12.80;;;;;;;14.49;26.68;100704.10;108280;1251;71459;-66
2023/03/01 00:34:08;;;;;;;27.90;12.70;;;;;;;14.79;26.39;100712.35;108190;1257;72571;-66
2023/03/01 00:36:38;;;;;;;25.10;12.20;;;;;;;15.05;26.05;100702.14;108337;1251;61097;-65
2023/03/01 00:39:14;;;;;;;24.00;12.70;;;;;;;15.17;25.87;100699.46;108325;1251;60634;-66
2023/03/01 00:41:44;;;;;;;28.30;13.40;;;;;;;15.30;25.83;100694.59;108302;1251;72736;-66
2023/03/01 00:44:15;;;;;;;24.90;12.40;;;;;;;14.77;26.20;100686.44;108337;1251;71531;-65
2023/03/01 00:46:43;;;;;;;25.00;11.40;;;;;;;14.53;26.66;100685.52;108269;1251;71470;-66
2023/03/01 00:49:11;;;;;;;25.50;13.00;;;;;;;14.21;26.97;100683.43;108271;1251;62994;-66
2023/03/01 00:51:41;;;;;;;29.80;12.10;;;;;;;14.25;27.01;100677.07;108272;1255;60406;-65
2023/03/01 00:54:09;;;;;;;27.10;13.40;;;;;;;14.21;27.03;100668.40;108213;1251;72432;-67
2023/03/01 00:56:40;;;;;;;23.00;12.70;;;;;;;14.27;26.92;100669.72;108120;1251;71370;-67
2023/03/01 00:59:08;;;;;;;24.60;12.30;;;;;;;14.24;27.06;100673.94;108320;1251;72679;-66
2023/03/01 01:01:37;;;;;;;30.90;12.80;;;;;;;14.76;26.51;100670.77;108357;1250;61907;-66
2023/03/01 01:04:08;;;;;;;25.60;12.30;;;;;;;14.76;26.27;100672.34;108388;1250;61002;-66
2023/03/01 01:06:44;;;;;;;25.80;12.50;;;;;;;14.84;26.34;100668.48;108410;1250;74805;-66
2023/03/01 01:09:19;;;;;;;26.00;13.00;;;;;;;14.41;26.66;100661.90;108310;1250;71332;-66
2023/03/01 01:11:48;;;;;;;24.30;12.60;;;;;;;13.82;27.34;100664.60;108224;1250;71787;-66
2023/03/01 01:14:17;;;;;;;31.70;14.80;;;;;;;13.81;27.48;100662.88;108411;1250;61274;-65
2023/03/01 01:16:45;;;;;;;27.30;12.40;;;;;;;13.78;27.53;100660.01;108381;1250;61288;-66
2023/03/01 01:19:14;;;;;;;29.00;12.60;;;;;;;13.87;27.36;100657.51;108272;1254;74672;-65
2023/03/01 01:21:42;;;;;;;31.80;13.90;;;;;;;13.34;28.02;100655.27;108370;1250;69794;-65
2023/03/01 01:24:11;;;;;;;23.40;12.00;;;;;;;13.32;28.01;100657.10;108277;1250;73224;-67
2023/03/01 01:26:40;;;;;;;27.30;13.60;;;;;;;13.49;27.93;100657.29;108314;1250;61761;-67
2023/03/01 01:29:09;;;;;;;26.80;13.50;;;;;;;13.36;27.96;100650.45;108276;1250;61621;-66
2023/03/01 01:31:38;;;;;;;25.90;12.70;;;;;;;13.16;28.20;100644.84;108301;1250;73131;-66
2023/03/01 01:34:07;;;;;;;27.10;13.00;;;;;;;13.18;28.29;100649.36;108293;1254;70919;-65
2023/03/01 01:36:35;;;;;;;25.30;12.50;;;;;;;13.19;28.22;100645.76;108311;1250;73580;-65
2023/03/01 01:39:04;;;;;;;28.20;13.00;;;;;;;13.31;28.15;100648.34;108324;1250;63179;-65
2023/03/01 01:41:32;;;;;;;29.10;13.20;;;;;;;13.58;27.91;100635.94;108251;1250;60987;-63
2023/03/01 01:44:21;;;;;;;25.90;12.30;;;;;;;13.60;27.76;100626.52;108189;1250;74006;-63
2023/03/01 01:46:56;;;;;;;28.00;13.90;;;;;;;13.59;27.83;100615.95;108341;1250;69808;-62
2023/03/01 01:49:47;;;;;;;27.10;13.60;;;;;;;14.12;27.32;100615.46;108320;1251;72976;-65
2023/03/01 01:52:21;;;;;;;;;;;;;;;14.29;26.99;100613.14;108323;1250;62817;-66
2023/03/01 01:55:01;;;;;;;26.30;12.40;;;;;;;14.20;27.17;100605.39;108405;1250;59432;-64
2023/03/01 01:57:47;;;;;;;29.50;13.80;;;;;;;14.40;26.99;100602.05;108372;1250;74294;-66
2023/03/01 02:00:19;;;;;;;29.00;14.40;;;;;;;14.59;26.63;100598.36;108247;1250;70729;-65
2023/03/01 02:02:48;;;;;;;30.20;12.80;;;;;;;14.39;26.88;100598.59;108275;1250;73008;-65
2023/03/01 02:05:26;;;;;;;27.80;13.30;;;;;;;14.43;26.94;100591.47;108291;1250;62705;-65
2023/03/01 02:07:56;;;;;;;25.60;13.60;;;;;;;14.58;26.77;100594.00;108387;1250;60718;-66
2023/03/01 02:10:25;;;;;;;26.90;14.00;;;;;;;14.64;26.72;100589.49;108318;1250;75686;-66
2023/03/01 02:12:53;;;;;;;25.60;12.10;;;;;;;14.43;26.78;100588.65;108352;1250;69265;-65
2023/03/01 02:15:23;;;;;;;24.90;12.90;;;;;;;13.78;27.50;100583.41;108220;1250;73027;-65
2023/03/01 02:17:53;;;;;;;30.00;13.40;;;;;;;13.96;27.51;100587.76;108308;1250;60697;-63
2023/03/01 02:20:30;;;;;;;26.70;12.40;;;;;;;14.32;27.13;100582.27;108311;1250;61566;-64
2023/03/01 02:22:58;;;;;;;29.70;13.80;;;;;;;14.14;27.33;100577.07;108370;1255;74608;-66
2023/03/01 02:25:46;;;;;;;29.30;13.50;;;;;;;13.63;27.92;100573.10;108386;1250;69706;-66
2023/03/01 02:28:33;;;;;;;23.80;12.60;;;;;;;13.64;27.94;100571.13;108291;1251;72965;-66
2023/03/01 02:33:50;;;;;;;28.00;12.80;;;;;;;13.84;27.90;100563.19;108326;1251;61293;-64
2023/03/01 02:36:21;;;;;;;26.50;12.80;;;;;;;14.16;27.40;100560.40;108186;1251;75004;-66
2023/03/01 02:38:51;;;;;;;33.30;14.10;;;;;;;13.77;27.88;100558.20;108323;1251;69939;-65
2023/03/01 02:41:20;;;;;;;29.70;14.00;;;;;;;14.00;27.62;100557.39;108199;1251;73337;-65
2023/03/01 02:43:48;;;;;;;29.00;13.30;;;;;;;14.30;27.24;100555.52;108131;1253;61125;-64
2023/03/01 02:46:22;;;;;;;31.10;15.00;;;;;;;14.36;27.20;100552.41;108251;1251;61722;-66
2023/03/01 02:48:55;;;;;;;25.80;13.70;;;;;;;14.30;27.22;100545.96;108324;1251;72992;-65
2023/03/01 02:51:33;;;;;;;26.90;13.70;;;;;;;13.90;27.63;100538.55;108204;1253;71587;-65
2023/03/01 02:54:52;;;;;;;27.80;13.50;;;;;;;13.72;27.93;100539.55;108355;1256;72642;-64
2023/03/01 03:00:49;;;;;;;32.40;14.00;;;;;;;6.84;39.18;100555.02;104830;1292;600773;-65
2023/03/01 03:03:19;;;;;;;31.10;13.20;;;;;;;9.93;33.49;100535.85;107347;1267;62243;-67
2023/03/01 03:05:52;;;;;;;32.00;13.50;;;;;;;10.42;32.91;100539.73;107368;1267;61316;-64
2023/03/01 03:08:23;;;;;;;28.10;13.80;;;;;;;10.82;32.29;100538.52;107347;1267;73084;-64
2023/03/01 03:10:52;;;;;;;28.70;12.80;;;;;;;11.45;31.46;100530.16;107373;1267;70475;-65
2023/03/01 03:13:21;;;;;;;28.90;14.50;;;;;;;11.74;31.05;100532.83;107130;1265;229788;-66
2023/03/01 03:15:50;;;;;;;29.80;13.40;;;;;;;11.88;30.79;100537.45;107486;1263;63720;-65
2023/03/01 03:18:19;;;;;;;28.90;13.20;;;;;;;11.55;31.11;100542.98;107921;1256;59042;-64
2023/03/01 03:20:52;;;;;;;26.70;13.50;;;;;;;11.30;31.66;100543.83;108052;1257;70510;-66
2023/03/01 03:23:21;;;;;;;25.30;12.90;;;;;;;11.74;31.21;100541.11;108060;1260;70391;-66
2023/03/01 03:25:49;;;;;;;31.10;15.30;;;;;;;11.84;30.87;100537.43;107910;1257;73896;-66
2023/03/01 03:28:17;;;;;;;26.00;12.60;;;;;;;11.93;30.67;100535.52;108011;1257;61963;-66
2023/03/01 03:30:46;;;;;;;30.40;15.40;;;;;;;12.05;30.57;100533.69;107844;1257;61510;-66
2023/03/01 03:33:14;;;;;;;27.00;13.20;;;;;;;12.13;30.57;100529.18;108098;1257;73942;-65
2023/03/01 03:35:45;;;;;;;32.80;14.70;;;;;;;12.25;30.45;100528.89;108082;1257;68359;-62
2023/03/01 03:38:15;;;;;;;28.60;14.30;;;;;;;12.70;29.75;100519.60;107915;1260;73039;-62
2023/03/01 03:41:04;;;;;;;32.00;13.90;;;;;;;12.85;29.65;100518.84;108050;1256;62281;-64
2023/03/01 03:43:34;;;;;;;29.30;14.40;;;;;;;13.17;29.04;100522.08;108053;1258;60007;-60
2023/03/01 03:46:07;;;;;;;32.50;14.40;;;;;;;13.14;29.12;100522.91;107986;1260;74069;-66
2023/03/01 03:48:40;;;;;;;28.90;14.30;;;;;;;12.93;29.27;100518.13;108099;1258;69620;-64
2023/03/01 03:51:13;;;;;;;32.40;14.30;;;;;;;12.73;29.63;100515.95;108058;1257;73698;-64
2023/03/01 03:53:44;;;;;;;28.80;14.50;;;;;;;12.85;29.60;100510.89;108070;1257;62268;-65
2023/03/01 03:56:12;;;;;;;26.10;13.30;;;;;;;13.10;29.27;100507.23;108044;1257;61140;-65
2023/03/01 03:58:41;;;;;;;31.90;15.00;;;;;;;13.08;29.15;100503.27;108068;1257;73734;-65
2023/03/01 04:01:10;;;;;;;31.60;14.40;;;;;;;12.99;29.29;100500.64;108074;1259;70577;-65
2023/03/01 04:03:41;;;;;;;33.10;15.00;;;;;;;13.06;29.29;100501.04;107663;1260;71262;-65
2023/03/01 04:06:10;;;;;;;27.40;14.20;;;;;;;13.10;29.26;100495.05;107802;1257;62826;-66
2023/03/01 04:08:40;;;;;;;29.90;13.90;;;;;;;13.11;29.29;100500.29;107762;1258;61343;-66
2023/03/01 04:11:27;;;;;;;36.50;15.90;;;;;;;13.06;29.31;100505.06;107746;1257;73020;-66
2023/03/01 04:13:57;;;;;;;30.40;14.50;;;;;;;12.97;29.48;100497.52;107585;1257;71301;-68
2023/03/01 04:16:26;;;;;;;26.80;14.20;;;;;;;12.79;29.65;100507.23;107712;1258;73926;-66
2023/03/01 04:18:55;;;;;;;31.00;14.30;;;;;;;12.67;29.75;100503.83;107723;1257;63212;-67
2023/03/01 04:21:23;;;;;;;32.40;14.00;;;;;;;12.93;29.53;100499.48;107811;1257;61418;-63
2023/03/01 04:23:53;;;;;;;29.60;13.50;;;;;;;12.91;29.66;100495.85;107733;1257;74087;-67
2023/03/01 04:26:24;;;;;;;31.40;14.00;;;;;;;12.75;29.87;100489.62;107781;1257;71347;-65
2023/03/01 04:28:52;;;;;;;32.20;13.70;;;;;;;12.71;30.00;100490.31;107965;1257;73521;-66
2023/03/01 04:31:24;;;;;;;31.00;13.90;;;;;;;12.69;30.05;100487.58;108072;1257;63090;-66
2023/03/01 04:33:54;;;;;;;29.50;14.10;;;;;;;12.83;29.85;100490.16;108090;1256;62249;-66
2023/03/01 04:36:25;;;;;;;32.40;14.90;;;;;;;12.81;29.95;100493.09;108115;1257;74066;-66
2023/03/01 04:38:54;;;;;;;32.10;14.40;;;;;;;12.85;29.92;100499.29;108042;1257;72252;-66
2023/03/01 04:41:23;;;;;;;27.10;14.50;;;;;;;13.17;29.52;100506.92;108006;1255;73663;-66
2023/03/01 04:43:52;;;;;;;30.10;14.40;;;;;;;13.06;29.61;100502.96;108026;1255;62546;-65
2023/03/01 04:46:21;;;;;;;31.80;14.70;;;;;;;13.10;29.77;100502.48;107959;1256;61332;-66
2023/03/01 04:48:54;;;;;;;26.80;14.00;;;;;;;13.18;29.69;100505.67;107985;1256;73839;-64
2023/03/01 04:51:23;;;;;;;36.60;15.60;;;;;;;13.39;29.48;100506.91;108018;1257;71257;-67
2023/03/01 04:53:51;;;;;;;32.20;15.40;;;;;;;13.63;29.36;100506.42;107991;1257;73513;-67
2023/03/01 04:56:19;;;;;;;28.10;13.80;;;;;;;13.67;29.27;100509.93;107993;1258;61656;-67
2023/03/01 04:58:47;;;;;;;32.20;14.30;;;;;;;13.50;29.59;100506.99;108020;1257;60473;-66
2023/03/01 05:01:17;;;;;;;33.10;15.40;;;;;;;13.84;29.29;100506.52;107933;1256;74121;-65
2023/03/01 05:03:47;;;;;;;30.80;14.90;;;;;;;14.07;29.12;100504.84;108072;1256;71522;-66
2023/03/01 05:06:16;;;;;;;34.80;15.30;;;;;;;14.19;28.92;100506.92;108081;1256;73681;-65
2023/03/01 05:08:45;;;;;;;33.30;15.80;;;;;;;14.40;28.79;100504.05;107803;1256;63232;-66
2023/03/01 05:11:13;;;;;;;35.70;16.60;;;;;;;14.50;28.64;100513.63;107818;1261;61351;-67
2023/03/01 05:13:43;;;;;;;33.00;15.90;;;;;;;14.12;29.02;100513.06;108053;1257;73676;-66
2023/03/01 05:16:11;;;;;;;30.00;13.40;;;;;;;14.09;29.21;100518.34;107995;1257;71981;-66
2023/03/01 05:18:41;;;;;;;32.60;15.70;;;;;;;14.50;28.86;100512.56;107973;1257;73749;-66
2023/03/01 05:21:11;;;;;;;32.70;14.80;;;;;;;14.24;29.14;100512.89;108086;1257;62692;-66
2023/03/01 05:23:43;;;;;;;28.50;14.30;;;;;;;14.27;29.14;100505.84;107891;1257;61186;-66
2023/03/01 05:26:12;;;;;;;31.30;14.20;;;;;;;14.12;29.32;100502.65;108049;1257;72041;-66
2023/03/01 05:28:58;;;;;;;32.90;15.60;;;;;;;13.78;29.73;100495.89;107947;1256;71584;-65
2023/03/01 05:31:30;;;;;;;27.00;14.40;;;;;;;14.11;29.54;100501.30;107797;1256;73618;-65
2023/03/01 05:33:58;;;;;;;29.30;14.70;;;;;;;14.11;29.62;100504.80;107927;1256;62055;-67
2023/03/01 05:36:27;;;;;;;31.60;14.60;;;;;;;14.34;29.36;100506.75;108020;1256;61025;-66
2023/03/01 05:38:55;;;;;;;30.10;14.80;;;;;;;14.59;29.16;100510.75;107927;1256;73375;-66
2023/03/01 05:41:23;;;;;;;33.80;14.90;;;;;;;14.76;28.98;100518.39;107867;1256;71262;-67
2023/03/01 05:43:52;;;;;;;32.60;15.60;;;;;;;15.11;28.58;100519.00;108159;1253;73491;-67
2023/03/01 05:46:23;;;;;;;37.40;15.30;;;;;;;15.11;28.52;100513.88;108110;1254;62152;-66
2023/03/01 05:48:53;;;;;;;24.80;13.20;;;;;;;14.99;28.67;100514.30;108178;1253;61548;-65
2023/03/01 05:51:22;;;;;;;32.50;15.20;;;;;;;14.64;29.07;100513.48;108078;1254;73950;-65
2023/03/01 05:53:50;;;;;;;29.10;14.50;;;;;;;14.97;28.73;100513.52;108064;1253;70943;-67
2023/03/01 05:56:18;;;;;;;31.00;14.10;;;;;;;14.80;28.95;100514.88;108050;1253;73919;-66
2023/03/01 05:58:48;;;;;;;29.00;14.50;;;;;;;15.00;28.89;100519.52;108049;1253;61614;-67
2023/03/01 06:01:16;;;;;;;30.60;15.00;;;;;;;14.76;29.14;100521.05;108203;1253;61102;-66
2023/03/01 06:03:46;;;;;;;25.30;13.10;;;;;;;14.99;28.92;100518.70;108221;1252;71800;-68
2023/03/01 06:06:14;;;;;;;32.20;15.40;;;;;;;15.15;28.67;100517.39;108233;1252;70746;-67
2023/03/01 06:08:48;;;;;;;28.60;14.70;;;;;;;15.23;28.59;100519.10;108200;1257;73853;-65
2023/03/01 06:11:18;;;;;;;32.20;15.80;;;;;;;15.29;28.45;100519.89;108148;1253;61252;-68
2023/03/01 06:13:46;;;;;;;31.90;14.70;;;;;;;15.21;28.58;100518.67;108189;1253;60532;-67
2023/03/01 06:16:22;;;;;;;29.80;14.10;;;;;;;15.36;28.41;100520.38;108175;1253;73927;-66
2023/03/01 06:18:50;;;;;;;30.70;15.60;;;;;;;15.53;28.33;100520.44;108131;1253;71225;-68
2023/03/01 06:21:18;;;;;;;30.50;14.70;;;;;;;15.58;28.27;100520.49;108187;1252;73068;-67
2023/03/01 06:23:47;;;;;;;28.00;14.50;;;;;;;15.59;28.32;100529.17;108332;1252;61856;-66
2023/03/01 06:26:15;;;;;;;37.20;15.10;;;;;;;15.71;28.22;100535.11;108103;1253;59408;-67
2023/03/01 06:28:45;;;;;;;31.30;15.30;;;;;;;15.67;28.33;100527.66;108238;1254;74043;-69
2023/03/01 06:31:15;;;;;;;30.80;14.70;;;;;;;15.77;28.34;100528.59;108392;1252;70577;-66
2023/03/01 06:33:44;;;;;;;27.80;14.50;;;;;;;15.74;28.36;100529.10;108317;1253;73557;-68
2023/03/01 06:36:15;;;;;;;28.20;13.20;;;;;;;15.93;28.33;100534.31;108316;1254;60097;-67
2023/03/01 06:38:45;;;;;;;30.80;15.80;;;;;;;15.81;28.43;100533.14;108185;1254;61572;-65
2023/03/01 06:41:13;;;;;;;27.80;13.70;;;;;;;15.86;28.56;100527.41;108382;1253;74156;-66
2023/03/01 06:43:41;;;;;;;27.90;13.80;;;;;;;15.82;28.62;100531.52;108346;1254;70344;-66
2023/03/01 06:46:09;;;;;;;31.80;15.50;;;;;;;16.46;28.04;100528.80;108259;1253;71742;-66
2023/03/01 06:48:37;;;;;;;29.10;15.30;;;;;;;16.41;28.17;100529.42;108287;1256;60825;-67
2023/03/01 06:51:07;;;;;;;24.60;12.70;;;;;;;16.31;28.31;100524.80;108304;1253;61509;-66
2023/03/01 06:53:37;;;;;;;31.90;14.00;;;;;;;16.18;28.52;100527.13;108431;1254;71917;-67
2023/03/01 06:56:09;;;;;;;26.60;13.40;;;;;;;15.96;28.69;100527.41;108109;1253;71277;-66
2023/03/01 06:58:41;;;;;;;30.70;13.90;;;;;;;15.61;29.19;100529.95;108385;1251;71508;-66
2023/03/01 07:01:09;;;;;;;29.30;14.60;;;;;;;15.66;29.32;100525.95;108181;1253;61841;-67
2023/03/01 07:03:38;;;;;;;26.10;13.90;;;;;;;15.97;29.20;100521.91;108308;1253;59530;-65
2023/03/01 07:06:08;;;;;;;29.10;14.80;;;;;;;16.35;28.74;100518.56;108381;1253;73918;-66
2023/03/01 07:08:36;;;;;;;30.30;14.40;;;;;;;16.73;28.43;100523.59;108205;1254;71300;-68
2023/03/01 07:11:05;;;;;;;25.80;13.50;;;;;;;16.93;28.30;100521.23;108364;1255;73708;-67
2023/03/01 07:13:42;;;;;;;27.90;14.30;;;;;;;17.12;28.19;100521.40;108277;1253;61979;-65
2023/03/01 07:16:11;;;;;;;22.50;11.70;;;;;;;17.32;28.04;100526.92;108314;1252;61343;-67
2023/03/01 07:18:40;;;;;;;27.90;13.60;;;;;;;17.45;27.61;100527.77;108278;1253;74724;-65
2023/03/01 07:21:11;;;;;;;27.70;14.40;;;;;;;17.51;27.60;100525.10;108260;1256;71026;-66
2023/03/01 07:23:43;;;;;;;27.70;14.00;;;;;;;17.97;27.29;100526.47;108136;1252;71877;-67
2023/03/01 07:26:12;;;;;;;26.20;13.70;;;;;;;17.86;27.02;100525.13;108292;1252;61080;-66
2023/03/01 07:28:46;;;;;;;29.70;14.30;;;;;;;17.94;27.01;100526.63;108289;1253;59098;-67
2023/03/01 07:31:15;;;;;;;24.90;12.60;;;;;;;18.20;26.86;100528.60;108206;1253;73647;-66
2023/03/01 07:33:45;;;;;;;35.70;15.10;;;;;;;17.98;26.84;100527.61;108303;1254;71486;-66
2023/03/01 07:36:12;;;;;;;26.50;14.20;;;;;;;17.65;27.08;100530.52;108252;1254;72936;-63
2023/03/01 07:38:44;;;;;;;28.10;14.60;;;;;;;17.62;27.30;100534.08;108349;1253;62125;-69
2023/03/01 07:41:13;;;;;;;29.10;14.00;;;;;;;17.74;26.92;100532.46;108326;1254;61287;-68
2023/03/01 07:43:42;;;;;;;25.40;13.10;;;;;;;17.48;27.35;100529.94;108347;1252;73506;-67
2023/03/01 07:46:10;;;;;;;24.20;13.00;;;;;;;17.45;27.37;100530.45;108242;1253;70317;-66
2023/03/01 07:48:40;;;;;;;24.30;13.10;;;;;;;17.88;27.06;100532.48;108366;1255;73716;-67
2023/03/01 07:51:12;;;;;;;26.80;12.90;;;;;;;17.87;27.09;100531.48;108316;1252;62221;-67
2023/03/01 07:53:41;;;;;;;30.40;14.00;;;;;;;18.04;26.92;100525.88;108367;1252;60354;-67
2023/03/01 07:56:12;;;;;;;28.70;13.20;;;;;;;18.15;26.80;100524.62;108342;1252;74602;-67
2023/03/01 07:58:43;;;;;;;29.00;13.60;;;;;;;17.84;27.08;100521.71;108198;1254;70584;-66
2023/03/01 08:01:18;;;;;;;28.00;14.10;;;;;;;17.95;26.96;100526.92;108365;1254;72925;-65
2023/03/01 08:03:46;;;;;;;27.50;13.50;;;;;;;17.93;27.09;100529.35;108307;1253;61211;-67
2023/03/01 08:06:16;;;;;;;29.40;14.80;;;;;;;17.44;27.62;100532.80;108295;1253;60351;-66
2023/03/01 08:08:44;;;;;;;28.10;13.70;;;;;;;17.46;27.54;100529.17;108374;1253;71815;-66
2023/03/01 08:11:15;;;;;;;28.90;13.80;;;;;;;17.62;27.58;100537.40;108305;1252;71344;-68
2023/03/01 08:14:03;;;;;;;25.90;13.60;;;;;;;17.95;27.19;100532.64;108339;1254;75219;-65
2023/03/01 08:16:35;;;;;;;24.60;12.30;;;;;;;18.01;27.30;100531.20;108326;1253;62176;-66
2023/03/01 08:19:08;;;;;;;27.10;12.20;;;;;;;18.11;27.08;100526.64;108267;1252;61352;-66
2023/03/01 08:21:36;;;;;;;24.60;13.00;;;;;;;18.63;26.61;100523.95;108356;1253;74355;-67
2023/03/01 08:24:06;;;;;;;26.90;13.10;;;;;;;18.93;26.42;100519.99;108324;1253;70543;-68
2023/03/01 08:26:34;;;;;;;25.10;11.60;;;;;;;19.00;26.21;100514.45;108405;1254;72549;-67
2023/03/01 08:29:02;;;;;;;31.20;12.70;;;;;;;19.04;26.19;100520.93;108315;1253;61242;-67
2023/03/01 08:31:35;;;;;;;24.70;11.80;;;;;;;18.61;26.58;100523.65;108359;1253;60469;-66
2023/03/01 08:34:13;;;;;;;20.50;11.70;;;;;;;19.06;26.09;100520.58;108194;1254;72003;-65
2023/03/01 08:36:43;;;;;;;24.70;12.00;;;;;;;18.69;26.37;100528.72;108148;1254;70745;-66
2023/03/01 08:39:14;;;;;;;28.50;11.90;;;;;;;18.67;26.38;100527.56;108392;1253;73595;-67
2023/03/01 08:41:42;;;;;;;23.60;12.50;;;;;;;18.94;25.94;100525.09;108272;1253;60466;-67
2023/03/01 08:44:11;;;;;;;30.00;11.70;;;;;;;18.65;26.40;100525.71;108185;1253;61428;-67
2023/03/01 08:46:41;;;;;;;22.30;11.80;;;;;;;18.64;26.52;100526.73;108247;1252;73752;-67
2023/03/01 08:49:13;;;;;;;23.30;11.80;;;;;;;18.75;26.41;100525.85;108437;1256;70347;-67
2023/03/01 08:51:44;;;;;;;20.70;10.30;;;;;;;19.04;26.10;100528.42;108283;1254;73631;-68
2023/03/01 08:54:20;;;;;;;23.00;12.00;;;;;;;19.22;26.04;100529.17;108128;1253;62275;-67
2023/03/01 08:56:49;;;;;;;23.50;11.80;;;;;;;19.23;26.11;100531.73;108295;1252;61356;-66
2023/03/01 08:59:18;;;;;;;23.20;11.00;;;;;;;19.27;26.06;100533.61;108264;1253;75106;-65
2023/03/01 09:01:46;;;;;;;21.90;12.60;;;;;;;19.40;25.71;100531.33;108342;1251;70506;-68
2023/03/01 09:04:14;;;;;;;23.40;11.50;;;;;;;19.18;25.87;100535.33;108355;1253;73355;-67
2023/03/01 09:06:43;;;;;;;21.40;11.50;;;;;;;19.09;26.03;100541.63;108193;1254;62383;-67
2023/03/01 09:09:15;;;;;;;24.10;11.80;;;;;;;19.23;25.87;100539.59;108316;1254;61589;-66
2023/03/01 09:11:45;;;;;;;;;;;;;;;19.23;25.91;100542.23;108283;1253;74825;-65
2023/03/01 09:14:17;;;;;;;24.90;11.90;;;;;;;18.96;26.17;100545.30;108279;1252;71552;-64
2023/03/01 09:16:46;;;;;;;19.70;10.20;;;;;;;19.00;26.14;100539.30;108248;1254;73706;-67
2023/03/01 09:19:14;;;;;;;18.60;10.60;;;;;;;19.05;26.04;100537.40;108249;1253;62250;-66
2023/03/01 09:21:51;;;;;;;19.60;10.30;;;;;;;18.94;26.12;100538.10;108138;1253;61272;-67
2023/03/01 09:24:21;;;;;;;17.70;9.60;;;;;;;18.79;26.39;100540.33;108124;1255;75512;-66
2023/03/01 09:26:50;;;;;;;20.60;10.20;;;;;;;18.87;26.27;100533.40;108366;1252;71567;-66
2023/03/01 09:29:19;;;;;;;21.40;10.80;;;;;;;19.14;26.09;100530.94;108135;1253;73874;-67
2023/03/01 09:31:47;;;;;;;19.70;10.70;;;;;;;19.50;25.81;100530.30;108162;1253;62239;-67
2023/03/01 09:34:19;;;;;;;23.30;11.30;;;;;;;19.58;25.65;100533.35;108099;1253;60531;-66
2023/03/01 09:36:47;;;;;;;21.60;11.20;;;;;;;19.69;25.40;100532.61;108084;1253;74006;-65
2023/03/01 09:39:17;;;;;;;20.80;11.30;;;;;;;19.77;25.34;100534.90;108228;1253;71022;-66
2023/03/01 09:42:02;;;;;;;19.70;10.50;;;;;;;19.91;25.29;100533.39;108151;1256;71900;-68
2023/03/01 09:44:41;;;;;;;22.50;10.40;;;;;;;20.18;25.08;100535.45;108181;1253;62221;-66
2023/03/01 09:47:20;;;;;;;19.90;10.80;;;;;;;20.63;24.52;100539.38;108104;1252;60284;-66
2023/03/01 09:49:54;;;;;;;18.70;10.70;;;;;;;20.68;24.20;100540.09;108134;1253;73346;-67
2023/03/01 09:53:12;;;;;;;19.80;10.20;;;;;;;20.62;24.32;100539.28;108159;1253;70053;-67
2023/03/01 09:56:18;;;;;;;19.10;11.00;;;;;;;20.93;24.01;100538.44;108076;1253;71719;-67
2023/03/01 09:58:57;;;;;;;19.50;10.10;;;;;;;20.52;24.12;100538.16;108144;1253;60427;-66
2023/03/01 10:01:38;;;;;;;23.30;11.20;;;;;;;20.70;23.97;100537.08;108287;1253;59520;-69
2023/03/01 10:04:44;;;;;;;17.20;9.10;;;;;;;20.86;23.93;100536.48;108109;1253;74610;-65
2023/03/01 10:07:21;;;;;;;18.20;10.30;;;;;;;20.88;23.95;100537.77;108182;1253;71233;-66
2023/03/01 10:09:51;;;;;;;21.10;10.80;;;;;;;20.73;24.03;100532.96;108052;1253;73611;-67
2023/03/01 10:12:24;;;;;;;16.50;8.50;;;;;;;20.66;24.12;100535.76;107959;1253;60464;-67
2023/03/01 10:14:55;;;;;;;22.40;10.50;;;;;;;20.51;24.14;100536.98;108008;1253;61297;-65
2023/03/01 10:17:44;;;;;;;18.60;9.70;;;;;;;20.56;23.96;100539.31;108142;1253;74873;-67
2023/03/01 10:20:17;;;;;;;18.70;10.60;;;;;;;20.43;24.08;100537.23;108184;1257;71808;-67
2023/03/01 10:22:50;;;;;;;18.80;9.80;;;;;;;20.49;24.11;100533.94;108172;1253;72965;-65
2023/03/01 10:25:22;;;;;;;18.90;9.90;;;;;;;20.32;24.34;100532.29;108077;1253;60678;-66
2023/03/01 10:27:53;;;;;;;20.20;9.90;;;;;;;20.13;24.54;100533.48;108224;1253;61179;-66
2023/03/01 10:30:29;;;;;;;19.10;10.00;;;;;;;19.70;24.96;100531.96;108099;1253;74844;-65
2023/03/01 10:32:58;;;;;;;22.30;10.10;;;;;;;20.00;24.72;100524.55;108035;1253;69970;-66
2023/03/01 10:35:32;;;;;;;14.80;8.70;;;;;;;20.20;24.53;100526.38;108129;1253;73363;-66
2023/03/01 10:38:05;;;;;;;20.90;10.50;;;;;;;19.87;24.92;100525.86;108196;1253;61415;-65
2023/03/01 10:40:34;;;;;;;18.10;9.20;;;;;;;20.23;24.58;100526.49;108204;1253;60682;-65
2023/03/01 10:43:04;;;;;;;19.10;9.90;;;;;;;19.98;24.92;100520.62;108115;1253;75264;-64
2023/03/01 10:45:37;;;;;;;20.60;10.50;;;;;;;19.86;25.07;100520.72;108136;1253;71388;-66
2023/03/01 10:48:19;;;;;;;17.60;9.40;;;;;;;19.70;25.18;100522.87;108011;1253;72440;-66
2023/03/01 10:50:48;;;;;;;21.10;10.20;;;;;;;19.67;25.21;100519.70;108120;1253;61332;-67
2023/03/01 10:53:20;;;;;;;19.00;9.90;;;;;;;19.45;25.40;100521.01;108131;1253;60454;-64
2023/03/01 10:55:48;;;;;;;19.50;11.10;;;;;;;19.34;25.63;100526.02;108120;1253;73872;-68
2023/03/01 10:58:21;;;;;;;24.00;10.50;;;;;;;19.45;25.55;100531.66;108093;1253;69616;-66
2023/03/01 11:01:03;;;;;;;21.30;10.20;;;;;;;19.43;25.69;100528.24;108080;1255;73036;-67
2023/03/01 11:03:37;;;;;;;22.30;9.80;;;;;;;19.43;25.78;100527.55;108091;1253;62443;-67
2023/03/01 11:06:11;;;;;;;19.50;9.70;;;;;;;19.50;25.67;100524.58;108190;1252;60951;-66
2023/03/01 11:08:40;;;;;;;16.40;9.40;;;;;;;19.60;25.68;100524.63;108157;1253;72828;-68
2023/03/01 11:11:34;;;;;;;18.30;9.40;;;;;;;19.91;25.39;100523.77;108228;1253;70613;-67
2023/03/01 11:14:22;;;;;;;18.60;10.10;;;;;;;20.01;25.26;100525.02;108111;1253;72532;-68
2023/03/01 11:17:27;;;;;;;17.00;9.30;;;;;;;19.90;25.39;100531.70;108151;1253;60515;-66
2023/03/01 11:20:14;;;;;;;19.00;8.50;;;;;;;20.01;25.35;100534.36;108149;1252;61369;-66
2023/03/01 11:22:55;;;;;;;17.40;9.60;;;;;;;20.19;25.10;100532.17;108119;1252;73306;-67
2023/03/01 11:25:32;;;;;;;24.80;10.40;;;;;;;19.88;25.36;100535.39;108128;1253;69374;-67
2023/03/01 11:28:05;;;;;;;23.00;10.00;;;;;;;19.68;25.60;100531.41;108191;1252;73649;-66
2023/03/01 11:30:38;;;;;;;18.20;9.80;;;;;;;19.27;26.08;100531.65;108375;1251;60315;-67